Time;durP1;ratioP1;P1;durP2;ratioP2;P2;SDS_P1;SDS_P2;PMS_P1;PMS_P2;Temp;Humidity;BMP_temperature;BMP_pressure;BME280_temperature;BME280_humidity;BME280_pressure;Samples;Min_cycle;Max_cycle;Signal;HPM_P1;HPM_P2
2021/12/08 00:00:18;;;;;;;;;1.00;1.00;;;;;10.04;70.64;99497.78;5116884;27;45368;-71
2021/12/08 00:02:44;;;;;;;;;0.67;0.00;;;;;10.02;70.21;99499.50;5117056;27;45553;-71
2021/12/08 00:05:12;;;;;;;;;8.00;5.00;;;;;10.03;70.71;99498.66;5116578;27;45444;-71
2021/12/08 00:07:38;;;;;;;;;2.33;2.00;;;;;9.98;70.47;99484.66;5116669;27;45466;-71
2021/12/08 00:10:29;;;;;;;;;2.00;1.00;;;;;10.02;71.18;99497.75;5116910;27;45436;-71
2021/12/08 00:13:03;;;;;;;;;3.00;0.33;;;;;9.98;70.70;99514.22;5113056;27;45255;-71
2021/12/08 00:15:37;;;;;;;;;4.00;3.00;;;;;10.07;71.40;99527.41;5114590;27;46149;-71
2021/12/08 00:18:08;;;;;;;;;1.33;1.00;;;;;10.08;71.11;99507.41;5113905;27;46034;-70
2021/12/08 00:20:35;;;;;;;;;1.00;1.00;;;;;10.05;71.18;99497.81;5116823;27;45453;-70
2021/12/08 00:23:03;;;;;;;;;2.00;0.00;;;;;10.01;71.32;99479.44;5116824;27;45515;-71
2021/12/08 00:25:29;;;;;;;;;0.00;0.00;;;;;9.99;71.54;99492.50;5116586;27;45572;-71
2021/12/08 00:27:55;;;;;;;;;1.00;0.00;;;;;9.95;71.86;99482.88;5116450;27;45371;-71
2021/12/08 00:30:21;;;;;;;;;0.00;0.00;;;;;9.92;71.92;99493.25;5116531;27;45750;-70
2021/12/08 00:32:48;;;;;;;;;0.00;0.00;;;;;9.88;72.22;99515.78;5117156;27;45348;-71
2021/12/08 00:35:14;;;;;;;;;0.00;0.00;;;;;9.86;72.08;99514.88;5116383;27;45309;-70
2021/12/08 00:37:40;;;;;;;;;0.00;0.00;;;;;9.87;72.18;99513.19;5116283;27;45516;-71
2021/12/08 00:40:09;;;;;;;;;0.00;0.00;;;;;9.83;72.23;99514.84;5116587;27;45930;-70
2021/12/08 00:42:36;;;;;;;;;0.00;0.00;;;;;9.81;71.26;99500.91;5116392;27;45420;-71
2021/12/08 00:45:02;;;;;;;;;0.00;0.00;;;;;9.72;71.35;99492.94;5119542;27;46273;-71
2021/12/08 00:47:27;;;;;;;;;1.00;0.00;;;;;9.69;71.09;99506.81;5119967;27;45603;-71
2021/12/08 00:49:53;;;;;;;;;0.00;0.00;;;;;9.55;71.39;99479.63;5119928;27;45580;-71
2021/12/08 00:52:19;;;;;;;;;0.00;0.00;;;;;9.45;71.03;99462.94;5120492;27;45520;-71
2021/12/08 00:54:44;;;;;;;;;1.00;1.00;;;;;9.66;71.11;99488.47;5119827;27;45645;-71
2021/12/08 00:57:10;;;;;;;;;2.67;2.00;;;;;9.64;71.17;99482.38;5119875;27;45527;-71
2021/12/08 00:59:37;;;;;;;;;1.00;1.00;;;;;9.60;71.61;99483.16;5120038;27;45582;-71
2021/12/08 01:02:04;;;;;;;;;0.67;0.00;;;;;9.55;71.51;99477.03;5117249;27;45434;-71
2021/12/08 01:04:31;;;;;;;;;1.00;0.00;;;;;9.49;71.75;99464.75;5119726;27;45350;-71
2021/12/08 01:06:57;;;;;;;;;1.67;1.00;;;;;9.36;71.50;99450.63;5119718;27;45457;-71
2021/12/08 01:09:23;;;;;;;;;1.00;0.00;;;;;9.35;72.20;99472.34;5116889;27;45450;-70
2021/12/08 01:11:48;;;;;;;;;0.00;0.00;;;;;9.30;72.15;99463.53;5120184;27;45397;-71
2021/12/08 01:14:15;;;;;;;;;1.00;0.00;;;;;9.14;71.82;99436.34;5119513;27;45997;-70
2021/12/08 01:16:41;;;;;;;;;0.33;0.00;;;;;9.23;72.16;99452.97;5119635;27;45548;-70
2021/12/08 01:19:07;;;;;;;;;0.00;0.00;;;;;9.21;71.92;99447.75;5119686;27;45692;-70
2021/12/08 01:21:33;;;;;;;;;0.00;0.00;;;;;9.16;72.25;99445.06;5119777;27;45453;-70
2021/12/08 01:23:59;;;;;;;;;0.00;0.00;;;;;9.15;72.04;99438.09;5119277;27;45501;-70
2021/12/08 01:26:26;;;;;;;;;0.00;0.00;;;;;9.14;71.63;99431.13;5119482;27;45319;-70
2021/12/08 01:28:55;;;;;;;;;0.00;0.00;;;;;9.00;71.85;99406.56;5119578;27;45377;-71
2021/12/08 01:31:22;;;;;;;;;0.67;0.00;;;;;9.09;71.70;99429.28;5119834;27;45637;-71
2021/12/08 01:33:48;;;;;;;;;2.00;0.00;;;;;9.06;71.64;99430.13;5119728;27;45812;-70
2021/12/08 01:36:14;;;;;;;;;1.00;0.00;;;;;9.02;71.95;99422.22;5119191;27;45393;-71
2021/12/08 01:38:39;;;;;;;;;2.33;2.00;;;;;9.04;71.54;99423.13;5119105;27;45382;-71
2021/12/08 01:41:06;;;;;;;;;2.67;1.33;;;;;9.03;71.70;99414.44;5119493;27;45532;-71
2021/12/08 01:45:56;;;;;;;;;0.00;0.00;;;;;9.03;70.97;99421.34;5119086;27;45422;-71
2021/12/08 01:46:28;;;;;;;;;1.00;0.33;;;;;9.01;71.04;99421.31;5120242;27;45327;-71
2021/12/08 01:48:54;;;;;;;;;0.00;0.00;;;;;9.01;70.48;99421.31;5120929;27;45410;-71
2021/12/08 01:51:20;;;;;;;;;0.00;0.00;;;;;9.00;70.25;99424.78;5121323;27;45431;-72
2021/12/08 01:53:52;;;;;;;;;0.00;0.00;;;;;9.01;71.12;99410.03;5120250;27;46062;-72
2021/12/08 01:56:21;;;;;;;;;0.00;0.00;;;;;9.00;69.95;99416.13;5120960;27;45333;-72
2021/12/08 01:58:47;;;;;;;;;0.00;0.00;;;;;8.99;70.06;99428.22;5119514;27;45450;-72
2021/12/08 02:01:15;;;;;;;;;0.00;0.00;;;;;8.98;70.23;99431.72;5121005;27;45716;-72
2021/12/08 02:03:42;;;;;;;;;0.00;0.00;;;;;9.00;69.07;99418.72;5136431;27;45281;-72
2021/12/08 02:06:09;;;;;;;;;0.00;0.00;;;;;9.00;69.31;99419.59;5119267;27;45463;-71
2021/12/08 02:08:36;;;;;;;;;0.00;0.00;;;;;9.04;68.97;99434.41;5120781;27;45427;-72
2021/12/08 02:11:04;;;;;;;;;0.00;0.00;;;;;9.02;68.86;99432.66;5120808;27;45499;-71
2021/12/08 02:13:36;;;;;;;;;0.00;0.00;;;;;9.05;69.05;99444.00;5120406;27;45356;-71
2021/12/08 02:16:04;;;;;;;;;0.00;0.00;;;;;8.95;68.50;99450.78;5120256;27;45509;-71
2021/12/08 02:18:30;;;;;;;;;0.00;0.00;;;;;9.07;68.21;99502.22;5120605;27;45288;-72
2021/12/08 02:21:00;;;;;;;;;0.00;0.00;;;;;8.91;70.30;99508.88;5120520;27;45498;-71
2021/12/08 02:23:26;;;;;;;;;0.00;0.00;;;;;8.84;69.79;99500.88;5120107;27;46083;-71
2021/12/08 02:25:53;;;;;;;;;0.00;0.00;;;;;8.78;70.47;99512.06;5120446;27;45480;-71
2021/12/08 02:28:18;;;;;;;;;0.00;0.00;;;;;8.71;71.23;99495.44;5120367;27;45618;-71
2021/12/08 02:49:31;;;;;;;;;0.00;0.00;;;;;8.67;72.45;99469.28;5119879;27;45467;-71
2021/12/08 02:51:57;;;;;;;;;0.33;0.33;;;;;8.67;72.96;99449.31;5120153;27;45519;-70
2021/12/08 02:54:22;;;;;;;;;2.00;0.00;;;;;8.68;73.02;99413.78;5120101;27;46341;-71
2021/12/08 02:56:48;;;;;;;;;0.00;0.00;;;;;8.52;72.52;99378.75;5119688;27;45450;-72
2021/12/08 02:59:15;;;;;;;;;0.00;0.00;;;;;8.44;73.50;99344.78;5119963;27;45390;-71
2021/12/08 03:01:41;;;;;;;;;1.00;1.00;;;;;8.46;73.95;99389.94;5120027;27;45396;-71
2021/12/08 03:04:08;;;;;;;;;0.67;0.67;;;;;8.36;72.93;99409.66;5119491;27;45436;-71
2021/12/08 03:06:34;;;;;;;;;8.50;8.25;;;;;8.48;72.26;99419.47;5118638;27;45552;-71
2021/12/08 03:09:02;;;;;;;;;1.67;1.00;;;;;8.50;70.49;99433.38;5119765;27;45351;-70
2021/12/08 03:11:28;;;;;;;;;0.00;0.00;;;;;8.55;69.11;99451.69;5119915;27;45370;-71
2021/12/08 03:14:04;;;;;;;;;1.00;0.00;;;;;8.55;69.08;99455.19;5119682;27;46037;-71
2021/12/08 03:16:30;;;;;;;;;0.00;0.00;;;;;8.51;69.23;99448.13;5119405;27;45374;-71
2021/12/08 03:18:56;;;;;;;;;0.00;0.00;;;;;8.56;70.72;99453.47;5119771;27;45331;-71
2021/12/08 03:21:28;;;;;;;;;0.00;0.00;;;;;8.51;71.00;99449.88;5119703;27;45357;-71
2021/12/08 03:24:13;;;;;;;;;0.00;0.00;;;;;8.50;71.39;99449.00;5119599;27;45498;-72
2021/12/08 03:26:51;;;;;;;;;0.00;0.00;;;;;8.54;70.97;99463.84;5118891;27;45425;-72
2021/12/08 03:29:30;;;;;;;;;0.00;0.00;;;;;8.56;71.56;99469.94;5119343;27;45766;-71
2021/12/08 03:32:05;;;;;;;;;0.00;0.00;;;;;8.58;72.05;99472.59;5119615;27;45296;-71
2021/12/08 03:34:32;;;;;;;;;0.00;0.00;;;;;8.53;71.47;99477.72;5118896;27;45331;-71
2021/12/08 03:36:59;;;;;;;;;0.00;0.00;;;;;8.49;72.11;99472.38;5119157;27;45812;-72
2021/12/08 03:39:25;;;;;;;;;2.00;0.00;;;;;8.43;72.18;99478.34;5119254;27;45615;-72
2021/12/08 03:41:50;;;;;;;;;0.00;0.00;;;;;8.38;72.64;99471.28;5119090;27;45525;-71
2021/12/08 03:44:16;;;;;;;;;0.00;0.00;;;;;8.31;72.55;99458.09;5118899;27;46128;-73
2021/12/08 03:46:42;;;;;;;;;0.00;0.00;;;;;8.35;72.76;99470.31;5118999;27;45404;-71
2021/12/08 03:49:14;;;;;;;;;1.00;0.00;;;;;8.34;72.59;99467.72;5119279;27;45246;-71
2021/12/08 03:51:41;;;;;;;;;1.00;0.00;;;;;8.32;73.08;99443.38;5119078;27;45411;-71
2021/12/08 03:54:07;;;;;;;;;2.00;1.00;;;;;8.32;72.59;99457.28;5118852;27;45937;-72
2021/12/08 03:56:32;;;;;;;;;4.25;3.00;;;;;8.36;72.88;99471.22;5118814;27;45359;-72
2021/12/08 03:58:58;;;;;;;;;0.00;0.00;;;;;8.39;72.64;99463.47;5118128;27;45394;-72
2021/12/08 04:01:24;;;;;;;;;0.67;0.00;;;;;8.39;72.39;99454.78;5119592;27;45437;-72
2021/12/08 04:03:50;;;;;;;;;1.00;1.00;;;;;8.38;72.65;99463.47;5118625;27;46070;-71
2021/12/08 04:06:33;;;;;;;;;1.33;1.00;;;;;8.32;72.69;99443.38;5118505;27;45301;-71
2021/12/08 04:09:03;;;;;;;;;1.00;0.00;;;;;8.07;71.76;99403.81;5119151;27;45433;-72
2021/12/08 04:11:29;;;;;;;;;0.00;0.00;;;;;7.93;72.10;99410.44;5119150;27;45420;-71
2021/12/08 04:14:05;;;;;;;;;0.00;0.00;;;;;7.73;71.83;99410.88;5118791;27;45972;-71
2021/12/08 04:16:38;;;;;;;;;1.00;0.00;;;;;7.60;72.35;99395.84;5118646;27;45494;-70
2021/12/08 04:19:05;;;;;;;;;0.50;0.00;;;;;7.50;72.08;99392.16;5118155;27;45357;-70
2021/12/08 04:21:32;;;;;;;;;1.00;0.25;;;;;7.43;72.30;99397.16;5118592;27;45510;-70
2021/12/08 04:23:58;;;;;;;;;0.00;0.00;;;;;7.38;72.18;99407.44;5118559;27;46038;-71
2021/12/08 04:26:31;;;;;;;;;0.00;0.00;;;;;7.29;72.33;99418.47;5118426;27;45589;-71
2021/12/08 04:28:57;;;;;;;;;0.00;0.00;;;;;7.41;72.17;99430.91;5118828;27;45452;-72
2021/12/08 04:31:30;;;;;;;;;0.00;0.00;;;;;7.49;70.78;99447.56;5118328;27;45487;-71
2021/12/08 04:34:01;;;;;;;;;0.75;0.00;;;;;7.54;72.29;99486.63;5117836;27;46309;-71
2021/12/08 04:36:32;;;;;;;;;0.67;0.00;;;;;7.45;69.81;99513.28;5118397;27;45387;-71
2021/12/08 04:39:01;;;;;;;;;0.00;0.00;;;;;7.36;70.40;99500.03;5118613;27;45349;-71
2021/12/08 04:41:36;;;;;;;;;0.00;0.00;;;;;7.27;71.04;99512.81;5118642;27;45511;-71
2021/12/08 05:05:21;;;;;;;;;1.00;0.00;;;;;6.94;71.02;99467.81;5117483;27;45386;-71
2021/12/08 05:08:00;;;;;;;;;1.00;0.00;;;;;6.86;71.06;99468.41;5117732;27;45416;-71
2021/12/08 05:10:33;;;;;;;;;0.00;0.00;;;;;6.72;71.26;99476.69;5117919;27;45318;-71
2021/12/08 05:13:04;;;;;;;;;0.00;0.00;;;;;6.67;71.96;99477.44;5118258;27;45474;-71
2021/12/08 05:15:40;;;;;;;;;0.00;0.00;;;;;6.65;71.94;99476.50;5117922;27;46048;-71
2021/12/08 05:18:13;;;;;;;;;0.00;0.00;;;;;6.63;71.66;99470.38;5117641;27;45328;-72
2021/12/08 05:20:42;;;;;;;;;0.00;0.00;;;;;6.61;72.19;99488.50;5117668;27;45490;-71
2021/12/08 05:23:27;;;;;;;;;0.00;0.00;;;;;6.60;72.29;99483.25;5117796;27;45577;-73
2021/12/08 05:25:54;;;;;;;;;0.00;0.00;;;;;6.49;72.68;99476.06;5117512;27;45600;-72
2021/12/08 05:28:23;;;;;;;;;0.00;0.00;;;;;6.43;72.57;99462.91;5117761;27;45545;-73
2021/12/08 05:30:58;;;;;;;;;0.00;0.00;;;;;6.35;73.18;99454.03;5120555;27;45274;-72
2021/12/08 05:33:25;;;;;;;;;0.50;0.00;;;;;6.24;72.96;99455.41;5121091;27;45438;-72
2021/12/08 05:35:52;;;;;;;;;0.00;0.00;;;;;6.13;72.65;99436.94;5120813;27;45492;-69
2021/12/08 05:38:19;;;;;;;;;0.75;0.00;;;;;6.10;72.44;99444.63;5120474;27;45332;-70
2021/12/08 05:40:51;;;;;;;;;0.00;0.00;;;;;5.93;72.46;99432.00;5121228;27;45491;-72
2021/12/08 05:43:17;;;;;;;;;0.00;0.00;;;;;5.93;72.38;99432.00;5121085;27;45553;-72
2021/12/08 05:45:46;;;;;;;;;0.00;0.00;;;;;5.90;72.71;99418.06;5120516;27;46024;-72
2021/12/08 05:48:12;;;;;;;;;0.00;0.00;;;;;5.85;72.38;99420.53;5120720;27;45422;-72
2021/12/08 05:50:49;;;;;;;;;0.00;0.00;;;;;5.82;72.69;99424.72;5119364;27;45530;-72
2021/12/08 05:53:15;;;;;;;;;2.00;0.00;;;;;5.82;72.38;99419.53;5121137;27;45503;-71
2021/12/08 05:55:42;;;;;;;;;10.00;8.00;;;;;5.71;72.23;99414.00;5120494;27;46204;-71
2021/12/08 05:58:10;;;;;;;;;5.50;5.00;;;;;5.76;72.19;99438.38;5120749;27;45497;-71
2021/12/08 06:00:51;;;;;;;;;1.00;0.75;;;;;5.77;71.50;99448.78;5120910;27;45398;-71
2021/12/08 06:03:19;;;;;;;;;1.00;1.00;;;;;5.82;70.89;99469.66;5120480;27;45545;-71
2021/12/08 06:05:49;;;;;;;;;2.00;2.00;;;;;5.95;70.80;99470.97;5120213;27;45508;-72
2021/12/08 06:08:15;;;;;;;;;1.50;1.00;;;;;6.14;72.04;99495.75;5120187;27;45163;-71
2021/12/08 06:10:42;;;;;;;;;0.00;0.00;;;;;6.30;70.77;99502.28;5120500;27;45355;-71
2021/12/08 06:13:12;;;;;;;;;0.00;0.00;;;;;6.43;70.71;99488.84;5120573;27;45419;-71
2021/12/08 06:15:39;;;;;;;;;1.00;1.00;;;;;6.52;70.78;99494.28;5120112;27;46218;-71
2021/12/08 06:18:05;;;;;;;;;1.00;0.00;;;;;6.37;72.19;99455.81;5120450;27;45245;-71
2021/12/08 06:20:31;;;;;;;;;1.00;0.00;;;;;6.57;72.93;99482.34;5120353;27;45331;-72
2021/12/08 06:22:57;;;;;;;;;0.00;0.00;;;;;6.60;73.18;99485.84;5120548;27;45438;-70
2021/12/08 06:25:23;;;;;;;;;1.00;0.00;;;;;6.67;71.62;99480.00;5118802;27;46153;-71
2021/12/08 06:27:49;;;;;;;;;31.75;29.75;;;;;6.70;72.97;99485.28;5118442;27;45528;-71
2021/12/08 06:30:19;;;;;;;;;6.25;4.50;;;;;6.76;72.99;99488.03;5118380;27;45464;-70
2021/12/08 06:32:45;;;;;;;;;4.00;4.00;;;;;6.73;71.75;99462.88;5115984;27;45525;-71
2021/12/08 06:35:16;;;;;;;;;6.25;4.25;;;;;6.82;71.28;99470.03;5118067;27;45546;-70
2021/12/08 06:37:44;;;;;;;;;8.25;7.50;;;;;6.94;70.69;99469.50;5118461;27;45433;-71
2021/12/08 06:40:26;;;;;;;;;3.00;2.25;;;;;6.99;71.39;99461.84;5116898;27;45570;-70
2021/12/08 06:42:55;;;;;;;;;10.75;8.00;;;;;7.03;71.15;99466.28;5118234;27;45399;-71
2021/12/08 06:45:25;;;;;;;;;1.00;0.50;;;;;7.03;68.93;99468.88;5117948;27;45301;-73
2021/12/08 06:47:53;;;;;;;;;4.50;2.00;;;;;7.10;69.27;99469.09;5116637;27;45613;-71
2021/12/08 06:50:24;;;;;;;;;1.75;0.00;;;;;7.13;69.36;99463.09;5117840;27;45408;-73
2021/12/08 06:52:51;;;;;;;;;2.00;1.00;;;;;7.14;69.23;99457.03;5118309;27;45464;-72
2021/12/08 06:55:26;;;;;;;;;2.00;1.50;;;;;7.02;67.36;99448.94;5116046;27;45374;-71
2021/12/08 06:58:02;;;;;;;;;3.00;2.00;;;;;7.17;67.34;99465.81;5114994;27;45434;-72
2021/12/08 07:00:49;;;;;;;;;12.25;11.00;;;;;7.19;68.70;99484.03;5117608;27;45520;-71
2021/12/08 07:06:29;;;;;;;;;7.25;6.75;;;;;7.11;68.16;99477.75;5116125;27;45758;-71
2021/12/08 07:08:56;;;;;;;;;4.50;4.25;;;;;7.26;68.97;99495.44;5115494;27;45652;-72
2021/12/08 07:11:24;;;;;;;;;2.00;2.00;;;;;7.26;68.16;99493.75;5117533;27;45355;-72
2021/12/08 07:13:53;;;;;;;;;3.00;2.00;;;;;7.15;68.00;99482.19;5117894;27;45382;-71
2021/12/08 07:16:24;;;;;;;;;9.00;9.00;;;;;7.26;68.86;99491.16;5114630;27;46148;-72
2021/12/08 07:18:57;;;;;;;;;1.00;1.00;;;;;7.25;68.96;99483.31;5117476;27;45366;-71
2021/12/08 07:21:28;;;;;;;;;12.00;11.25;;;;;7.22;68.15;99493.63;5115470;27;45407;-71
2021/12/08 07:24:07;;;;;;;;;9.50;9.00;;;;;7.20;67.72;99497.88;5117906;27;45254;-73
2021/12/08 07:26:37;;;;;;;;;2.00;0.00;;;;;7.19;68.50;99484.03;5116182;27;45961;-71
2021/12/08 07:29:08;;;;;;;;;1.25;1.00;;;;;7.16;68.13;99487.44;5117802;27;45464;-72
2021/12/08 07:31:41;;;;;;;;;7.25;7.00;;;;;7.20;68.01;99519.53;5117479;27;45430;-70
2021/12/08 07:34:13;;;;;;;;;1.00;1.00;;;;;7.22;66.85;99493.63;5117518;27;46174;-71
2021/12/08 07:36:42;;;;;;;;;6.75;4.00;;;;;7.26;66.89;99505.84;5114967;27;45430;-71
2021/12/08 07:39:14;;;;;;;;;3.50;3.00;;;;;7.31;65.46;99504.25;5117098;27;45596;-71
2021/12/08 07:41:46;;;;;;;;;4.00;2.75;;;;;7.39;65.75;99500.13;5115327;27;45515;-71
2021/12/08 07:44:13;;;;;;;;;9.50;7.00;;;;;7.35;65.53;99480.97;5117113;27;45509;-71
2021/12/08 07:47:01;;;;;;;;;3.00;3.00;;;;;7.49;64.78;99501.25;5116674;27;46441;-71
2021/12/08 07:49:41;;;;;;;;;14.75;6.75;;;;;7.59;64.34;99510.16;5114929;27;45659;-72
2021/12/08 07:52:12;;;;;;;;;11.00;9.50;;;;;7.73;64.14;99498.38;5114801;27;45704;-71
2021/12/08 07:54:38;;;;;;;;;4.50;2.50;;;;;7.86;62.93;99490.06;5117286;27;45589;-71
2021/12/08 07:57:07;;;;;;;;;3.75;3.00;;;;;8.07;62.07;99494.84;5117207;27;45633;-71
2021/12/08 07:59:35;;;;;;;;;3.75;1.50;;;;;8.27;61.12;99495.31;5116855;27;45309;-71
2021/12/08 08:02:07;;;;;;;;;10.25;8.25;;;;;8.37;61.70;99499.00;5116572;27;45312;-71
2021/12/08 08:04:36;;;;;;;;;2.50;1.50;;;;;8.35;60.37;99508.50;5117730;27;45499;-72
2021/12/08 08:07:04;;;;;;;;;2.00;1.00;;;;;8.30;61.08;99517.94;5118578;27;45232;-71
2021/12/08 08:09:35;;;;;;;;;4.00;3.00;;;;;8.22;61.58;99512.56;5118349;27;45400;-71
2021/12/08 08:12:07;;;;;;;;;9.50;7.75;;;;;8.19;61.56;99533.28;5118514;27;45420;-71
2021/12/08 08:14:40;;;;;;;;;8.00;8.00;;;;;8.19;61.68;99529.81;5118699;27;45233;-72
2021/12/08 08:17:13;;;;;;;;;0.50;0.00;;;;;8.08;60.54;99514.84;5117958;27;46071;-71
2021/12/08 08:19:44;;;;;;;;;2.75;2.00;;;;;8.15;60.91;99524.53;5116580;27;45529;-71
2021/12/08 08:22:18;;;;;;;;;2.75;2.75;;;;;8.07;60.41;99504.38;5114573;27;45382;-71
2021/12/08 08:24:45;;;;;;;;;2.00;2.00;;;;;8.19;60.43;99525.47;5116814;27;45449;-71
2021/12/08 08:27:13;;;;;;;;;9.00;7.00;;;;;8.22;60.24;99524.69;5116378;27;45355;-72
2021/12/08 08:29:39;;;;;;;;;2.50;1.75;;;;;8.24;60.00;99528.22;5115407;27;45427;-72
2021/12/08 08:32:16;;;;;;;;;3.00;3.00;;;;;8.27;59.43;99528.25;5117971;27;45444;-71
2021/12/08 08:34:45;;;;;;;;;1.50;1.00;;;;;8.31;59.76;99535.28;5118087;27;45538;-71
2021/12/08 08:37:12;;;;;;;;;3.25;3.00;;;;;8.20;59.18;99505.53;5117193;27;46027;-71
2021/12/08 08:39:45;;;;;;;;;3.50;2.00;;;;;8.25;59.75;99529.94;5118044;27;45419;-70
2021/12/08 08:42:21;;;;;;;;;5.25;4.50;;;;;8.42;59.75;99551.19;5118081;27;45481;-70
2021/12/08 08:44:58;;;;;;;;;3.00;3.00;;;;;8.64;59.09;99558.63;5118373;27;45461;-70
2021/12/08 08:47:35;;;;;;;;;0.33;0.00;;;;;8.94;57.64;99547.09;5118207;27;46030;-70
2021/12/08 08:50:07;;;;;;;;;0.00;0.00;;;;;9.28;56.85;99542.56;5118093;27;45309;-71
2021/12/08 08:52:37;;;;;;;;;1.00;1.00;;;;;9.54;56.50;99569.09;5118221;27;45356;-71
2021/12/08 08:55:18;;;;;;;;;15.25;14.75;;;;;9.74;56.53;99562.50;5118144;27;45312;-71
2021/12/08 08:57:46;;;;;;;;;5.75;5.75;;;;;10.04;55.81;99558.66;5117764;27;45536;-71
2021/12/08 09:00:25;;;;;;;;;2.00;1.75;;;;;10.12;54.82;99553.56;5117629;27;45311;-70
2021/12/08 09:02:54;;;;;;;;;1.00;1.00;;;;;10.20;56.29;99549.34;5117554;27;45213;-71
2021/12/08 09:05:24;;;;;;;;;2.00;2.00;;;;;10.48;54.27;99549.78;5120254;27;45307;-70
2021/12/08 09:07:53;;;;;;;;;2.33;2.00;;;;;10.67;54.28;99546.59;5121325;27;45492;-70
2021/12/08 09:10:29;;;;;;;;;0.00;0.00;;;;;10.70;53.30;99554.47;5120200;27;45450;-71
2021/12/08 09:13:02;;;;;;;;;0.00;0.00;;;;;10.65;53.04;99550.91;5121482;27;45378;-71
2021/12/08 09:15:33;;;;;;;;;1.00;1.00;;;;;10.49;52.19;99556.78;5121782;27;45432;-71
2021/12/08 09:18:05;;;;;;;;;0.00;0.00;;;;;10.52;52.04;99564.66;5121151;27;46043;-71
2021/12/08 09:20:40;;;;;;;;;0.00;0.00;;;;;10.44;52.07;99537.53;5121384;27;45455;-71
2021/12/08 09:23:15;;;;;;;;;0.00;0.00;;;;;10.77;51.87;99551.94;5121522;27;45621;-70
2021/12/08 09:25:50;;;;;;;;;0.00;0.00;;;;;11.01;50.66;99562.69;5121175;27;45520;-70
2021/12/08 09:28:24;;;;;;;;;0.00;0.00;;;;;11.02;50.68;99550.50;5119715;27;46340;-71
2021/12/08 09:31:04;;;;;;;;;0.00;0.00;;;;;10.89;50.17;99558.19;5121180;27;45523;-71
2021/12/08 09:33:39;;;;;;;;;0.00;0.00;;;;;10.54;50.99;99581.22;5121102;27;45529;-72
2021/12/08 09:36:13;;;;;;;;;0.00;0.00;;;;;10.28;51.57;99573.81;5121229;27;45414;-72
2021/12/08 09:38:46;;;;;;;;;0.00;0.00;;;;;10.18;52.60;99569.31;5121427;27;45276;-72
2021/12/08 09:41:27;;;;;;;;;0.00;0.00;;;;;9.97;50.46;99577.69;5120992;27;45490;-72
2021/12/08 09:43:58;;;;;;;;;0.00;0.00;;;;;9.85;52.62;99585.31;5120914;27;45392;-72
2021/12/08 09:46:32;;;;;;;;;0.00;0.00;;;;;9.64;52.42;99581.47;5121044;27;45498;-72
2021/12/08 09:48:58;;;;;;;;;0.00;0.00;;;;;9.52;52.48;99574.28;5120799;27;46183;-72
2021/12/08 09:51:27;;;;;;;;;1.00;0.00;;;;;9.40;54.38;99576.66;5120909;27;45395;-72
2021/12/08 09:53:53;;;;;;;;;0.00;0.00;;;;;9.19;54.36;99579.75;5121000;27;45403;-72
2021/12/08 09:56:20;;;;;;;;;0.00;0.00;;;;;9.10;55.93;99605.63;5119687;27;45458;-72
2021/12/08 09:58:46;;;;;;;;;0.00;0.00;;;;;8.87;55.63;99594.69;5120768;27;45652;-72
2021/12/08 10:01:17;;;;;;;;;0.00;0.00;;;;;8.80;56.52;99624.06;5121050;27;45466;-72
2021/12/08 10:03:43;;;;;;;;;0.00;0.00;;;;;8.59;58.34;99634.88;5120764;27;45300;-71
2021/12/08 10:06:12;;;;;;;;;0.00;0.00;;;;;8.40;60.12;99626.59;5121087;27;45405;-72
2021/12/08 10:08:37;;;;;;;;;0.00;0.00;;;;;8.22;60.41;99639.16;5120470;27;45330;-72
2021/12/08 10:11:03;;;;;;;;;0.00;0.00;;;;;8.07;61.19;99624.91;5120485;27;45268;-72
2021/12/08 10:13:29;;;;;;;;;0.00;0.00;;;;;8.12;61.34;99651.94;5120499;27;45542;-72
2021/12/08 10:15:55;;;;;;;;;0.00;0.00;;;;;8.13;61.79;99656.28;5120262;27;45486;-72
2021/12/08 10:18:21;;;;;;;;;0.00;0.00;;;;;8.08;62.54;99668.31;5120361;27;46041;-72
2021/12/08 10:20:50;;;;;;;;;0.00;0.00;;;;;8.07;62.43;99687.34;5120581;27;45248;-71
2021/12/08 10:23:22;;;;;;;;;0.00;0.00;;;;;7.78;64.34;99652.78;5120614;27;45393;-71
2021/12/08 10:26:12;;;;;;;;;0.00;0.00;;;;;7.80;64.75;99674.50;5120566;27;45524;-71
2021/12/08 10:28:53;;;;;;;;;0.00;0.00;;;;;7.76;64.88;99673.53;5120080;27;45340;-71
2021/12/08 10:31:28;;;;;;;;;0.00;0.00;;;;;7.74;64.85;99662.22;5120006;27;45500;-72
2021/12/08 10:34:10;;;;;;;;;1.00;1.00;;;;;7.76;64.61;99668.34;5119955;27;45478;-72
2021/12/08 10:36:45;;;;;;;;;0.00;0.00;;;;;7.79;64.47;99666.66;5120230;27;45557;-72
2021/12/08 10:39:45;;;;;;;;;0.00;0.00;;;;;7.70;64.80;99670.78;5119956;27;45548;-72
2021/12/08 10:42:24;;;;;;;;;0.00;0.00;;;;;7.69;66.21;99666.41;5120135;27;45493;-72
2021/12/08 10:47:37;;;;;;;;;0.00;0.00;;;;;7.60;65.86;99673.97;5120026;27;45353;-71
2021/12/08 10:55:54;;;;;;;;;0.00;0.00;;;;;7.53;65.37;99654.69;5119875;27;45502;-74
2021/12/08 10:58:22;;;;;;;;;3.50;3.00;;;;;7.52;65.71;99660.75;5113405;27;45611;-72
2021/12/08 11:00:48;;;;;;;;;4.00;4.00;;;;;7.42;66.17;99647.44;5103594;27;45490;-73
2021/12/08 11:03:14;;;;;;;;;1.00;1.00;;;;;7.45;66.16;99664.00;5112302;27;45624;-72
2021/12/08 11:05:46;;;;;;;;;0.00;0.00;;;;;7.33;65.88;99650.66;5104407;27;45916;-71
2021/12/08 11:08:26;;;;;;;;;0.00;0.00;;;;;7.00;65.59;99629.78;5101587;27;45316;-71
2021/12/08 11:11:12;;;;;;;;;0.00;0.00;;;;;7.13;67.15;99676.94;5106619;27;45483;-69
2021/12/08 11:13:41;;;;;;;;;0.00;0.00;;;;;7.02;67.56;99698.22;5102732;27;45615;-71
2021/12/08 11:16:12;;;;;;;;;0.00;0.00;;;;;6.96;67.40;99720.59;5104841;27;45439;-71
2021/12/08 11:18:40;;;;;;;;;0.00;0.00;;;;;6.91;67.63;99718.69;5103996;27;45555;-71
2021/12/08 11:21:16;;;;;;;;;0.00;0.00;;;;;6.92;67.87;99718.72;5100376;27;45501;-72
2021/12/08 11:26:15;;;;;;;;;0.00;0.00;;;;;6.99;66.38;99698.16;5100689;27;45493;-71
2021/12/08 11:28:42;;;;;;;;;1.00;0.75;;;;;6.93;66.93;99670.28;5103404;27;45287;-71
2021/12/08 11:31:13;;;;;;;;;0.00;0.00;;;;;7.08;67.20;99701.00;5100614;27;45362;-71
2021/12/08 11:33:47;;;;;;;;;1.00;0.00;;;;;7.10;66.75;99699.34;5098221;27;45341;-70
2021/12/08 11:36:16;;;;;;;;;3.00;3.00;;;;;6.96;66.99;99697.22;5101369;27;45480;-71
2021/12/08 11:38:44;;;;;;;;;1.00;1.00;;;;;6.89;66.74;99695.25;5111941;27;45546;-71
2021/12/08 11:41:38;;;;;;;;;0.00;0.00;;;;;6.71;66.09;99702.47;5109176;27;46643;-71
2021/12/08 11:44:17;;;;;;;;;0.00;0.00;;;;;6.60;66.64;99701.25;5100533;27;45537;-71
2021/12/08 11:46:54;;;;;;;;;0.25;0.00;;;;;6.54;66.83;99702.78;5101005;27;45475;-71
2021/12/08 11:49:21;;;;;;;;;0.00;0.00;;;;;6.51;66.93;99689.72;5100782;27;45536;-70
2021/12/08 11:51:49;;;;;;;;;0.00;0.00;;;;;6.59;66.64;99678.72;5102913;27;45583;-71
2021/12/08 11:54:29;;;;;;;;;0.00;0.00;;;;;6.71;65.66;99677.41;5103651;27;45202;-71
2021/12/08 11:57:10;;;;;;;;;1.00;1.00;;;;;6.84;65.89;99676.03;5100712;27;45338;-71
2021/12/08 12:00:05;;;;;;;;;4.00;3.00;;;;;6.92;65.32;99672.00;5098321;27;45359;-70
2021/12/08 12:02:33;;;;;;;;;0.75;0.75;;;;;7.01;65.54;99673.97;5102110;27;46006;-71
2021/12/08 12:05:00;;;;;;;;;0.50;0.50;;;;;7.12;65.19;99664.81;5108051;27;45548;-70
2021/12/08 12:07:26;;;;;;;;;2.00;1.00;;;;;7.31;64.50;99648.00;5101859;27;45501;-72
2021/12/08 12:09:52;;;;;;;;;0.00;0.00;;;;;7.32;64.40;99638.50;5099414;27;45551;-71
2021/12/08 12:12:18;;;;;;;;;0.25;0.25;;;;;7.31;65.25;99641.94;5098936;27;46081;-70
2021/12/08 12:14:45;;;;;;;;;0.00;0.00;;;;;7.34;64.66;99642.00;5099748;27;45454;-71
2021/12/08 12:17:10;;;;;;;;;0.00;0.00;;;;;7.33;64.21;99630.75;5100378;27;45463;-71
2021/12/08 12:19:50;;;;;;;;;0.00;0.00;;;;;7.36;63.40;99622.16;5100159;27;45511;-72
2021/12/08 12:23:06;;;;;;;;;0.00;0.00;;;;;7.41;62.98;99623.19;5100147;27;45584;-71
2021/12/08 12:25:42;;;;;;;;;2.00;1.50;;;;;7.43;63.28;99612.84;5097567;27;45349;-71
2021/12/08 12:28:38;;;;;;;;;2.25;1.00;;;;;7.54;62.98;99613.97;5099214;27;45490;-71
2021/12/08 12:31:26;;;;;;;;;6.00;6.00;;;;;7.73;63.06;99610.16;5099942;27;45327;-71
2021/12/08 12:33:53;;;;;;;;;6.00;5.50;;;;;7.81;62.97;99603.44;5097507;27;46194;-71
2021/12/08 12:36:32;;;;;;;;;2.00;2.00;;;;;7.77;63.58;99605.09;5100158;27;45277;-71
2021/12/08 12:39:11;;;;;;;;;7.00;7.00;;;;;7.72;64.33;99598.91;5103910;27;45586;-71
2021/12/08 12:41:37;;;;;;;;;2.00;2.00;;;;;7.48;64.24;99565.34;5103925;27;45337;-71
2021/12/08 12:44:13;;;;;;;;;0.00;0.00;;;;;7.67;64.58;99599.63;5101049;27;45386;-71
2021/12/08 12:47:04;;;;;;;;;3.00;2.25;;;;;7.68;64.47;99588.34;5106682;27;45359;-71
2021/12/08 12:49:31;;;;;;;;;3.75;3.25;;;;;7.71;64.81;99567.66;5106197;27;45556;-72
2021/12/08 12:52:06;;;;;;;;;0.25;0.25;;;;;7.96;64.00;99584.78;5104029;27;45527;-71